Time;durP1;ratioP1;P1;durP2;ratioP2;P2;SDS_P1;SDS_P2;PMS_P1;PMS_P2;Temp;Humidity;BMP_temperature;BMP_pressure;BME280_temperature;BME280_humidity;BME280_pressure;Samples;Min_cycle;Max_cycle;Signal;HPM_P1;HPM_P2
2021/05/30 00:01:53;;;;;;;9.48;3.53;;;;;;;5.01;81.50;96236.00;5111742;28;20358;-74
2021/05/30 00:04:20;;;;;;;7.07;3.47;;;;;;;5.02;81.99;96248.03;5111093;28;20054;-74
2021/05/30 00:06:46;;;;;;;7.63;3.40;;;;;;;4.94;82.75;96250.94;5092106;28;20127;-75
2021/05/30 00:09:12;;;;;;;5.45;3.20;;;;;;;4.91;82.54;96246.13;5101663;28;20111;-75
2021/05/30 00:11:38;;;;;;;8.02;3.53;;;;;;;4.82;83.37;96247.41;5099462;28;20067;-75
2021/05/30 00:14:04;;;;;;;6.22;3.40;;;;;;;4.83;83.19;96251.63;5091771;28;20439;-75
2021/05/30 00:16:31;;;;;;;5.30;3.35;;;;;;;4.83;83.29;96251.63;5091707;28;20402;-75
2021/05/30 00:18:56;;;;;;;4.72;3.05;;;;;;;4.76;83.71;96249.06;5099879;28;20036;-75
2021/05/30 00:21:22;;;;;;;6.85;3.40;;;;;;;4.75;83.81;96251.91;5112366;28;20423;-75
2021/05/30 00:23:48;;;;;;;7.28;3.50;;;;;;;4.78;82.95;96246.25;5111248;28;20047;-75
2021/05/30 00:26:13;;;;;;;5.38;3.40;;;;;;;4.75;83.13;96251.91;5108770;28;20040;-75
2021/05/30 00:28:39;;;;;;;6.07;3.78;;;;;;;4.69;83.67;96249.13;5094642;28;20485;-77
2021/05/30 00:31:05;;;;;;;5.50;3.60;;;;;;;4.64;83.00;96241.16;5110836;28;20417;-76
2021/05/30 00:33:30;;;;;;;6.95;4.00;;;;;;;4.63;82.64;96244.75;5091699;28;20051;-75
2021/05/30 00:35:56;;;;;;;7.05;3.38;;;;;;;4.53;83.10;96236.63;5091202;28;20044;-77
2021/05/30 00:38:21;;;;;;;6.53;3.90;;;;;;;4.56;82.66;96238.00;5090355;28;20040;-77
2021/05/30 00:40:47;;;;;;;4.88;3.28;;;;;;;4.56;82.36;96233.59;5108602;28;20402;-77
2021/05/30 00:43:12;;;;;;;5.28;3.40;;;;;;;4.47;82.33;96240.09;5109496;28;20039;-77
2021/05/30 00:45:38;;;;;;;7.05;4.15;;;;;;;4.44;82.57;96246.53;5111674;28;20043;-76
2021/05/30 00:48:04;;;;;;;10.82;6.43;;;;;;;4.38;83.30;96242.13;5102082;28;20509;-77
2021/05/30 00:50:30;;;;;;;8.40;5.13;;;;;;;4.36;83.06;96243.38;5096727;28;20044;-77
2021/05/30 00:52:55;;;;;;;6.28;4.00;;;;;;;4.40;82.57;96239.34;5091294;28;20116;-76
2021/05/30 00:55:21;;;;;;;6.30;3.55;;;;;;;4.27;83.28;96235.81;5091167;28;20411;-77
2021/05/30 00:57:47;;;;;;;5.80;3.50;;;;;;;4.22;83.53;96237.44;5091109;28;20085;-77
2021/05/30 01:00:14;;;;;;;4.90;3.42;;;;;;;4.23;83.45;96241.66;5096887;28;20036;-77
2021/05/30 01:02:40;;;;;;;4.82;3.15;;;;;;;4.19;83.41;96233.44;5110695;28;20050;-76
2021/05/30 01:05:08;;;;;;;5.93;3.45;;;;;;;4.15;83.73;96234.88;5102600;28;20043;-77
2021/05/30 01:07:40;;;;;;;6.18;3.60;;;;;;;4.12;84.23;96237.91;5111438;28;20039;-77
2021/05/30 01:10:16;;;;;;;6.40;3.53;;;;;;;4.21;83.40;96241.06;5094657;28;20061;-77
2021/05/30 01:12:44;;;;;;;5.22;3.38;;;;;;;4.27;82.83;96245.44;5093900;28;20043;-77
2021/05/30 01:15:10;;;;;;;6.00;3.38;;;;;;;4.26;82.52;96244.63;5110888;28;20067;-76
2021/05/30 01:17:36;;;;;;;8.13;3.60;;;;;;;4.27;82.32;96246.22;5108996;27;20565;-76
2021/05/30 01:20:03;;;;;;;5.88;3.63;;;;;;;4.29;82.29;96241.59;5103214;28;20493;-76
2021/05/30 01:22:34;;;;;;;5.68;3.72;;;;;;;4.26;83.09;96244.63;5104289;28;20115;-77
2021/05/30 01:24:59;;;;;;;7.55;3.60;;;;;;;4.24;82.42;96241.44;5109914;28;20493;-75
2021/05/30 01:27:25;;;;;;;6.88;3.42;;;;;;;4.16;82.50;96244.28;5107742;28;20164;-76
2021/05/30 01:29:51;;;;;;;8.07;3.58;;;;;;;4.10;82.87;96242.53;5110720;28;20051;-77
2021/05/30 01:32:16;;;;;;;6.20;3.33;;;;;;;4.09;82.93;96248.75;5110015;28;20071;-77
2021/05/30 01:34:42;;;;;;;5.85;3.50;;;;;;;4.10;82.67;96243.31;5111046;28;20126;-77
2021/05/30 01:37:07;;;;;;;5.35;3.20;;;;;;;3.98;83.30;96238.00;5102861;28;20048;-76
2021/05/30 01:39:33;;;;;;;7.40;3.22;;;;;;;3.95;83.42;96248.84;5090520;28;20105;-77
2021/05/30 01:41:58;;;;;;;9.98;3.83;;;;;;;3.93;82.84;96253.44;5102441;28;20050;-77
2021/05/30 01:44:24;;;;;;;5.90;3.38;;;;;;;3.90;83.28;96248.66;5107584;28;20035;-77
2021/05/30 01:46:49;;;;;;;6.00;3.50;;;;;;;3.85;82.86;96248.50;5110615;28;20088;-77
2021/05/30 01:49:15;;;;;;;6.30;3.70;;;;;;;3.79;82.93;96244.09;5109440;28;20040;-77
2021/05/30 01:51:40;;;;;;;6.13;3.30;;;;;;;3.68;83.46;96244.75;5109185;28;20691;-76
2021/05/30 01:54:08;;;;;;;5.43;3.58;;;;;;;3.66;83.99;96246.75;5110535;28;20036;-77
2021/05/30 01:59:19;;;;;;;6.07;3.70;;;;;;;3.57;83.91;96252.19;5102533;28;20047;-77
2021/05/30 02:01:45;;;;;;;7.35;3.88;;;;;;;3.53;84.16;96255.44;5104092;28;20415;-76
2021/05/30 02:04:13;;;;;;;5.90;3.75;;;;;;;3.55;83.56;96254.22;5108259;27;20039;-77
2021/05/30 02:06:41;;;;;;;9.43;3.80;;;;;;;3.50;83.71;96254.03;5105854;28;20032;-77
2021/05/30 02:09:06;;;;;;;7.72;4.15;;;;;;;3.48;84.59;96253.44;5107244;28;20433;-76
2021/05/30 02:11:33;;;;;;;6.30;3.55;;;;;;;3.42;84.00;96254.25;5107360;28;20039;-76
2021/05/30 02:14:03;;;;;;;5.47;3.65;;;;;;;3.43;84.38;96245.44;5103738;28;20052;-76
2021/05/30 02:16:30;;;;;;;5.75;3.70;;;;;;;3.46;84.14;96255.44;5108210;28;20097;-76
2021/05/30 02:18:55;;;;;;;7.28;3.92;;;;;;;3.39;84.85;96252.88;5096102;28;20138;-77
2021/05/30 02:21:21;;;;;;;6.20;3.78;;;;;;;3.37;83.91;96248.88;5102402;28;20148;-76
2021/05/30 02:23:47;;;;;;;5.93;3.90;;;;;;;3.32;84.71;96248.69;5110005;28;20229;-76
2021/05/30 02:26:12;;;;;;;7.30;3.60;;;;;;;3.27;84.83;96251.91;5108941;28;20035;-77
2021/05/30 02:28:38;;;;;;;6.10;3.70;;;;;;;3.26;84.89;96251.13;5108545;28;20273;-76
2021/05/30 02:31:03;;;;;;;8.05;3.85;;;;;;;3.24;84.81;96242.69;5108426;28;20051;-77
2021/05/30 02:33:29;;;;;;;8.70;3.60;;;;;;;3.21;84.50;96248.31;5109986;28;20042;-76
2021/05/30 02:35:55;;;;;;;5.82;3.60;;;;;;;3.21;84.87;96253.50;5103271;28;20036;-76
2021/05/30 02:38:21;;;;;;;5.38;3.40;;;;;;;3.22;84.71;96255.13;5093885;28;20047;-76
2021/05/30 02:40:46;;;;;;;7.07;3.85;;;;;;;3.20;84.24;96257.09;5105375;28;20040;-77
2021/05/30 02:43:12;;;;;;;5.97;3.70;;;;;;;3.12;85.20;96254.75;5113146;28;20067;-76
2021/05/30 02:45:38;;;;;;;8.77;3.60;;;;;;;3.11;84.43;96263.53;5099676;28;20066;-76
2021/05/30 02:48:03;;;;;;;7.70;4.10;;;;;;;3.12;85.23;96259.94;5112637;28;20040;-76
2021/05/30 02:50:29;;;;;;;10.20;3.85;;;;;;;3.13;84.90;96266.72;5114189;28;20416;-76
2021/05/30 02:52:55;;;;;;;6.20;3.78;;;;;;;3.10;85.28;96259.34;5114070;28;20070;-76
2021/05/30 02:55:20;;;;;;;9.77;4.28;;;;;;;3.12;85.34;96270.34;5113944;28;20489;-77
2021/05/30 02:57:46;;;;;;;9.38;3.85;;;;;;;3.15;85.02;96264.75;5096816;28;20036;-76
2021/05/30 03:00:12;;;;;;;6.47;4.15;;;;;;;3.25;84.35;96265.13;5113893;28;20036;-76
2021/05/30 03:02:38;;;;;;;6.78;3.70;;;;;;;3.36;83.71;96265.47;5103420;28;20122;-76
2021/05/30 03:05:05;;;;;;;5.93;3.35;;;;;;;3.43;83.68;96272.28;5113221;28;20545;-75
2021/05/30 03:07:31;;;;;;;6.75;3.95;;;;;;;3.47;83.33;96277.88;5113572;28;20085;-76
2021/05/30 03:09:56;;;;;;;6.45;3.53;;;;;;;3.49;83.37;96275.06;5098274;28;20044;-77
2021/05/30 03:12:22;;;;;;;5.65;3.65;;;;;;;3.46;84.32;96271.06;5093150;28;20043;-76
2021/05/30 03:14:47;;;;;;;6.75;3.75;;;;;;;3.38;85.04;96276.50;5101517;28;20123;-76
2021/05/30 03:17:13;;;;;;;7.00;3.80;;;;;;;3.38;84.43;96273.91;5113515;28;20039;-76
2021/05/30 03:19:39;;;;;;;6.93;3.95;;;;;;;3.31;85.37;96273.13;5094796;28;20082;-76
2021/05/30 03:22:06;;;;;;;6.93;4.28;;;;;;;3.32;85.41;96274.69;5094670;28;20138;-76
2021/05/30 03:24:32;;;;;;;7.68;4.15;;;;;;;3.31;85.08;96283.53;5110576;28;20090;-75
2021/05/30 03:26:58;;;;;;;6.65;4.40;;;;;;;3.33;84.31;96291.91;5102544;28;20493;-76
2021/05/30 03:29:23;;;;;;;5.43;3.70;;;;;;;3.36;84.34;96292.31;5108470;28;20029;-76
2021/05/30 03:31:49;;;;;;;7.88;4.10;;;;;;;3.31;84.51;96288.72;5092934;28;20065;-77
2021/05/30 03:34:14;;;;;;;8.48;3.95;;;;;;;3.31;84.76;96293.94;5094306;28;20079;-76
2021/05/30 03:36:41;;;;;;;5.53;3.80;;;;;;;3.32;84.09;96295.50;5103813;28;20100;-76
2021/05/30 03:39:09;;;;;;;6.03;3.47;;;;;;;3.26;84.79;96292.72;5111859;28;20040;-76
2021/05/30 03:41:40;;;;;;;7.93;4.07;;;;;;;3.17;85.67;96293.94;5113328;28;20040;-76
2021/05/30 03:44:07;;;;;;;6.55;3.80;;;;;;;3.17;85.29;96299.13;5102923;28;20424;-76
2021/05/30 03:46:33;;;;;;;5.65;3.92;;;;;;;3.14;85.06;96299.53;5099981;28;20630;-76
2021/05/30 03:48:58;;;;;;;7.82;4.03;;;;;;;3.15;85.72;96295.94;5092503;28;20040;-76
2021/05/30 03:51:25;;;;;;;6.50;3.95;;;;;;;3.14;85.83;96299.53;5112476;28;20054;-75
2021/05/30 03:53:51;;;;;;;5.90;3.90;;;;;;;3.14;85.62;96302.16;5111679;28;20040;-76
2021/05/30 03:56:16;;;;;;;6.68;3.70;;;;;;;3.17;85.42;96299.13;5107633;28;20058;-76
2021/05/30 03:58:42;;;;;;;5.57;3.65;;;;;;;3.18;85.00;96295.53;5109679;28;20036;-76
2021/05/30 04:01:08;;;;;;;5.80;3.63;;;;;;;3.20;84.75;96300.53;5112873;28;20043;-76
2021/05/30 04:03:33;;;;;;;7.25;4.22;;;;;;;3.20;84.93;96303.13;5112907;28;20169;-76
2021/05/30 04:05:59;;;;;;;7.70;3.78;;;;;;;3.19;85.37;96302.34;5094415;28;20051;-76
2021/05/30 04:08:24;;;;;;;5.88;3.72;;;;;;;3.22;85.06;96301.94;5110624;28;20050;-76
2021/05/30 04:10:51;;;;;;;6.43;3.70;;;;;;;3.26;85.06;96308.34;5110612;28;20582;-76
2021/05/30 04:13:16;;;;;;;5.30;3.50;;;;;;;3.29;84.91;96302.72;5110961;28;20050;-76
2021/05/30 04:15:42;;;;;;;5.28;3.58;;;;;;;3.33;85.95;96297.13;5111548;28;20043;-76
2021/05/30 04:18:07;;;;;;;5.90;3.70;;;;;;;3.38;85.42;96299.91;5107260;28;20494;-76
2021/05/30 04:20:33;;;;;;;7.13;3.97;;;;;;;3.49;85.52;96301.88;5107499;28;20039;-76
2021/05/30 04:22:58;;;;;;;5.18;3.58;;;;;;;3.55;85.22;96306.28;5111479;28;20044;-76
2021/05/30 04:25:24;;;;;;;8.48;4.00;;;;;;;3.63;85.01;96303.44;5112512;28;20035;-76
2021/05/30 04:27:50;;;;;;;6.40;3.53;;;;;;;3.71;85.72;96305.03;5101993;28;20051;-76
2021/05/30 04:30:16;;;;;;;7.65;4.10;;;;;;;3.79;85.01;96306.56;5099890;28;20027;-77
2021/05/30 04:32:42;;;;;;;6.80;4.40;;;;;;;3.97;84.93;96304.09;5110629;28;20035;-76
2021/05/30 04:35:09;;;;;;;8.88;3.95;;;;;;;4.09;84.56;96306.06;5110920;28;20454;-77
2021/05/30 04:37:34;;;;;;;6.32;4.03;;;;;;;4.23;84.56;96306.78;5092824;28;20039;-77
2021/05/30 04:40:00;;;;;;;8.98;4.35;;;;;;;4.31;84.74;96307.34;5106689;28;20409;-76
2021/05/30 04:42:26;;;;;;;7.60;4.00;;;;;;;4.48;85.06;96309.44;5111999;28;20047;-76
2021/05/30 04:44:52;;;;;;;7.18;4.18;;;;;;;4.64;84.71;96308.13;5112094;28;20455;-76
2021/05/30 04:47:17;;;;;;;6.43;4.30;;;;;;;4.76;84.88;96310.88;5106776;28;20044;-77
2021/05/30 04:49:43;;;;;;;6.57;4.47;;;;;;;4.89;85.17;96300.31;5091845;28;20055;-76
2021/05/30 04:52:11;;;;;;;6.88;4.43;;;;;;;4.97;85.28;96302.66;5108368;28;20461;-76
2021/05/30 04:54:36;;;;;;;9.68;4.40;;;;;;;5.02;85.49;96300.19;5109420;28;20035;-77
2021/05/30 04:57:03;;;;;;;6.80;3.95;;;;;;;5.02;85.77;96299.41;5097105;28;20036;-77
2021/05/30 04:59:29;;;;;;;7.68;3.97;;;;;;;5.10;86.03;96300.94;5109904;28;20417;-76
2021/05/30 05:01:55;;;;;;;6.03;3.90;;;;;;;5.34;85.35;96301.91;5111661;28;20036;-76
2021/05/30 05:04:21;;;;;;;7.00;4.22;;;;;;;5.40;86.34;96300.25;5108398;28;20039;-76
2021/05/30 05:06:47;;;;;;;11.00;5.45;;;;;;;5.62;85.66;96298.03;5091132;28;20047;-76
2021/05/30 05:09:12;;;;;;;10.20;5.70;;;;;;;5.71;85.55;96304.53;5090344;28;20058;-76
2021/05/30 05:11:38;;;;;;;11.52;5.45;;;;;;;5.92;85.08;96308.53;5099759;28;20051;-76
2021/05/30 05:14:03;;;;;;;8.48;4.50;;;;;;;5.80;85.39;96305.03;5111382;28;20092;-76
2021/05/30 05:16:30;;;;;;;10.82;5.82;;;;;;;5.76;86.27;96309.09;5109337;28;20431;-76
2021/05/30 05:18:56;;;;;;;9.77;6.72;;;;;;;5.88;86.48;96304.75;5105492;28;20040;-76
2021/05/30 05:21:22;;;;;;;10.98;6.15;;;;;;;5.96;86.28;96304.47;5104163;28;20115;-76
2021/05/30 05:23:47;;;;;;;9.50;6.55;;;;;;;6.02;86.80;96303.59;5109662;28;20533;-77
2021/05/30 05:26:13;;;;;;;9.40;6.28;;;;;;;6.21;86.04;96300.97;5104741;28;20421;-76
2021/05/30 05:28:38;;;;;;;8.82;5.93;;;;;;;6.21;86.53;96306.19;5108018;28;20043;-76
2021/05/30 05:31:04;;;;;;;9.07;6.22;;;;;;;6.37;86.02;96300.31;5108333;28;20036;-76
2021/05/30 05:33:30;;;;;;;10.15;5.95;;;;;;;6.59;84.89;96303.25;5098347;28;20032;-76
2021/05/30 05:35:56;;;;;;;11.18;5.95;;;;;;;6.66;84.71;96300.50;5109890;28;20073;-76
2021/05/30 05:38:21;;;;;;;10.00;6.72;;;;;;;6.76;85.60;96303.34;5109455;28;20122;-76
2021/05/30 05:40:47;;;;;;;8.90;6.05;;;;;;;6.90;84.24;96297.94;5099945;28;20489;-77
2021/05/30 05:43:12;;;;;;;9.73;6.40;;;;;;;7.22;82.44;96295.78;5110682;28;20046;-76
2021/05/30 05:45:38;;;;;;;10.13;6.22;;;;;;;7.53;80.19;96291.22;5110754;28;20055;-76
2021/05/30 05:48:15;;;;;;;9.52;6.03;;;;;;;7.73;79.25;96301.31;5099144;28;20498;-76
2021/05/30 05:50:45;;;;;;;10.05;6.15;;;;;;;7.52;80.28;96304.53;5097465;28;20032;-76
2021/05/30 05:53:11;;;;;;;8.75;5.90;;;;;;;7.57;81.48;96296.75;5098674;28;20039;-76
2021/05/30 05:55:36;;;;;;;8.05;6.13;;;;;;;7.50;81.41;96293.47;5106184;28;20061;-76
2021/05/30 05:58:03;;;;;;;10.15;6.40;;;;;;;7.87;78.47;96295.78;5104715;28;20047;-76
2021/05/30 06:00:30;;;;;;;8.40;5.70;;;;;;;7.72;80.49;96289.22;5101942;28;20044;-76
2021/05/30 06:02:55;;;;;;;8.85;5.95;;;;;;;8.05;79.45;96294.84;5110192;28;20038;-76
2021/05/30 06:05:22;;;;;;;9.48;5.68;;;;;;;7.95;79.35;96292.81;5103441;28;20032;-76
2021/05/30 06:07:50;;;;;;;7.47;5.50;;;;;;;8.26;79.55;96288.13;5106125;28;20485;-76
2021/05/30 06:10:17;;;;;;;12.95;6.07;;;;;;;8.38;78.22;96291.50;5090978;28;20036;-76
2021/05/30 06:12:43;;;;;;;9.55;6.00;;;;;;;8.63;77.41;96293.00;5090482;28;20036;-76
2021/05/30 06:15:09;;;;;;;10.93;5.90;;;;;;;8.65;75.82;96290.94;5109989;28;20057;-76
2021/05/30 06:17:35;;;;;;;10.50;6.13;;;;;;;8.59;77.11;96291.88;5103163;28;20048;-76
2021/05/30 06:20:01;;;;;;;10.43;6.45;;;;;;;8.48;77.08;96289.09;5109964;28;20044;-77
2021/05/30 06:22:27;;;;;;;10.52;6.75;;;;;;;8.70;75.01;96293.63;5110565;28;20075;-77
2021/05/30 06:24:53;;;;;;;11.70;6.30;;;;;;;8.59;75.19;96286.63;5108263;28;20044;-77
2021/05/30 06:27:19;;;;;;;8.23;6.20;;;;;;;9.02;74.00;96295.69;5090364;28;20040;-76
2021/05/30 06:29:45;;;;;;;9.93;6.63;;;;;;;8.92;75.76;96292.94;5096935;28;20134;-77
2021/05/30 06:32:11;;;;;;;10.93;6.65;;;;;;;9.12;72.22;96284.56;5108150;28;20124;-77
2021/05/30 06:34:36;;;;;;;9.38;6.68;;;;;;;9.09;73.41;96285.81;5109515;28;20039;-77
2021/05/30 06:37:02;;;;;;;9.35;6.88;;;;;;;8.94;74.08;96283.00;5109769;28;20039;-77
2021/05/30 06:39:28;;;;;;;8.68;5.97;;;;;;;9.50;71.89;96283.78;5106969;28;20159;-77
2021/05/30 06:41:54;;;;;;;9.32;6.00;;;;;;;9.62;72.47;96282.88;5110231;28;20063;-77
2021/05/30 06:44:20;;;;;;;10.50;6.22;;;;;;;9.62;71.25;96277.63;5107853;28;20042;-77
2021/05/30 06:46:46;;;;;;;10.50;5.63;;;;;;;9.50;72.05;96281.16;5090757;28;20036;-77
2021/05/30 06:49:12;;;;;;;9.20;6.05;;;;;;;9.58;70.82;96271.25;5098103;28;20036;-77
2021/05/30 06:51:38;;;;;;;10.00;6.35;;;;;;;9.61;71.03;96271.56;5104053;28;20090;-76
2021/05/30 06:54:05;;;;;;;10.80;5.60;;;;;;;9.50;70.23;96273.25;5101808;28;20044;-76
2021/05/30 06:56:30;;;;;;;7.90;5.75;;;;;;;9.89;69.34;96273.19;5103094;28;20040;-77
2021/05/30 06:58:57;;;;;;;9.18;5.78;;;;;;;10.00;68.36;96273.34;5110479;28;20522;-77
2021/05/30 07:01:23;;;;;;;8.55;5.35;;;;;;;10.11;64.18;96275.00;5108248;28;20073;-76
2021/05/30 07:03:50;;;;;;;8.13;5.28;;;;;;;10.01;65.54;96273.09;5089609;28;20074;-76
2021/05/30 07:06:17;;;;;;;10.13;5.53;;;;;;;9.84;68.02;96273.16;5099142;28;20044;-76
2021/05/30 07:08:43;;;;;;;8.73;5.53;;;;;;;10.13;66.35;96267.69;5104904;28;20035;-76
2021/05/30 07:11:09;;;;;;;8.40;5.32;;;;;;;10.36;64.27;96277.16;5095127;28;20379;-76
2021/05/30 07:13:35;;;;;;;8.88;5.82;;;;;;;10.28;63.51;96269.66;5108558;28;20058;-76
2021/05/30 07:16:01;;;;;;;9.70;5.63;;;;;;;10.27;66.79;96272.53;5109166;28;20477;-76
2021/05/30 07:18:26;;;;;;;12.80;5.53;;;;;;;10.43;63.45;96276.97;5102459;28;20040;-76
2021/05/30 07:20:54;;;;;;;7.25;5.25;;;;;;;10.54;63.70;96278.66;5100803;28;20070;-76
2021/05/30 07:23:21;;;;;;;10.70;5.05;;;;;;;10.66;63.43;96280.28;5097394;28;20118;-77
2021/05/30 07:25:47;;;;;;;11.73;5.03;;;;;;;10.52;63.46;96280.72;5092930;28;20044;-76
2021/05/30 07:28:13;;;;;;;6.75;4.75;;;;;;;10.48;64.78;96278.84;5098492;28;20043;-76
2021/05/30 07:30:39;;;;;;;8.35;5.18;;;;;;;10.76;61.48;96280.41;5111929;28;20447;-76
2021/05/30 07:33:05;;;;;;;7.95;5.07;;;;;;;10.94;61.75;96281.06;5111694;28;20067;-78
2021/05/30 07:35:31;;;;;;;7.30;4.95;;;;;;;10.85;62.77;96273.63;5108126;28;20101;-76
2021/05/30 07:37:57;;;;;;;8.77;6.03;;;;;;;10.97;63.35;96280.53;5109513;28;20044;-78
2021/05/30 07:40:25;;;;;;;8.52;5.35;;;;;;;11.01;61.91;96281.63;5104415;28;20068;-77
2021/05/30 07:42:50;;;;;;;8.20;4.90;;;;;;;11.05;61.15;96277.44;5113706;28;20040;-77
2021/05/30 07:45:17;;;;;;;10.75;5.00;;;;;;;11.07;62.02;96281.41;5095026;28;20154;-76
2021/05/30 07:47:43;;;;;;;6.82;4.50;;;;;;;11.06;59.54;96279.03;5098210;28;20032;-76
2021/05/30 07:50:10;;;;;;;8.88;4.63;;;;;;;11.16;59.56;96281.75;5098770;28;20086;-76
2021/05/30 07:52:35;;;;;;;8.40;4.60;;;;;;;11.04;60.37;96281.13;5093969;28;20513;-78
2021/05/30 07:55:03;;;;;;;7.13;4.47;;;;;;;10.92;61.82;96274.19;5093255;28;20032;-77
2021/05/30 07:57:28;;;;;;;6.72;4.00;;;;;;;10.84;61.56;96277.28;5109913;28;20043;-77
2021/05/30 07:59:54;;;;;;;7.47;4.32;;;;;;;11.08;58.93;96266.41;5106067;28;20039;-78
2021/05/30 08:02:19;;;;;;;6.97;3.95;;;;;;;11.11;61.25;96271.16;5102429;28;20043;-78
2021/05/30 08:04:45;;;;;;;7.30;4.20;;;;;;;11.32;60.42;96266.00;5092501;28;20050;-77
2021/05/30 08:07:10;;;;;;;4.60;3.50;;;;;;;11.53;55.51;96262.44;5091411;28;20382;-77
2021/05/30 08:09:36;;;;;;;5.93;4.25;;;;;;;11.65;57.29;96264.88;5096761;28;20051;-78
2021/05/30 08:12:04;;;;;;;5.65;3.85;;;;;;;11.81;57.38;96265.72;5104312;28;20047;-79
2021/05/30 08:14:30;;;;;;;5.65;4.22;;;;;;;12.09;55.66;96258.44;5104238;28;20047;-78
2021/05/30 08:16:57;;;;;;;9.85;4.20;;;;;;;12.34;51.61;96259.56;5095373;28;20048;-78
2021/05/30 08:19:24;;;;;;;5.93;3.80;;;;;;;12.34;53.08;96254.28;5091185;28;20040;-77
2021/05/30 08:21:50;;;;;;;5.78;3.90;;;;;;;12.85;56.46;96254.31;5093694;28;20413;-77
2021/05/30 08:24:16;;;;;;;7.80;4.32;;;;;;;12.91;54.61;96258.50;5093565;28;20040;-77
2021/05/30 08:26:42;;;;;;;6.13;3.88;;;;;;;13.16;52.08;96254.28;5092923;28;20040;-78
2021/05/30 08:29:08;;;;;;;5.25;3.22;;;;;;;12.72;47.66;96260.13;5089339;28;20043;-78
2021/05/30 08:31:33;;;;;;;4.82;3.42;;;;;;;12.59;46.92;96256.16;5093865;28;20059;-78
2021/05/30 08:33:59;;;;;;;5.63;2.80;;;;;;;12.52;44.33;96260.91;5090438;28;20709;-80
2021/05/30 08:36:24;;;;;;;4.68;2.67;;;;;;;12.26;44.58;96258.22;5091575;28;20047;-76
2021/05/30 08:38:50;;;;;;;5.22;2.60;;;;;;;12.18;45.23;96267.44;5090768;28;20122;-77
2021/05/30 08:41:19;;;;;;;5.45;3.40;;;;;;;12.06;47.57;96256.34;5093247;28;20409;-78
2021/05/30 08:43:45;;;;;;;6.68;3.15;;;;;;;12.32;47.85;96257.19;5096661;28;20054;-77
2021/05/30 08:46:10;;;;;;;4.95;3.30;;;;;;;12.51;47.61;96249.53;5093962;28;20036;-77
2021/05/30 08:48:36;;;;;;;7.38;3.10;;;;;;;12.83;46.44;96251.16;5091314;28;20566;-77
2021/05/30 08:51:05;;;;;;;5.70;3.30;;;;;;;13.16;47.81;96254.28;5092614;28;20408;-78
2021/05/30 08:53:39;;;;;;;5.45;3.20;;;;;;;13.25;46.46;96252.66;5091388;28;20472;-78
2021/05/30 08:56:06;;;;;;;3.88;2.97;;;;;;;13.41;46.70;96250.03;5092227;28;20094;-77
2021/05/30 08:58:39;;;;;;;6.25;3.17;;;;;;;13.45;45.92;96251.06;5094926;28;20036;-77
2021/05/30 09:01:07;;;;;;;6.82;3.33;;;;;;;14.00;46.28;96259.81;5108049;28;20040;-77
2021/05/30 09:03:33;;;;;;;8.63;3.65;;;;;;;13.98;47.06;96258.53;5105874;28;20043;-77
2021/05/30 09:06:14;;;;;;;8.57;3.70;;;;;;;14.17;46.88;96250.75;5113166;28;20062;-77
2021/05/30 09:08:43;;;;;;;6.45;3.70;;;;;;;13.63;47.28;96253.13;5096974;28;20047;-78
2021/05/30 09:11:09;;;;;;;8.40;3.95;;;;;;;13.21;48.80;96254.25;5111299;28;20108;-77
2021/05/30 09:13:55;;;;;;;6.47;3.92;;;;;;;13.46;48.13;96252.63;5096994;28;20040;-77
2021/05/30 09:16:22;;;;;;;6.38;3.85;;;;;;;13.47;48.37;96256.88;5111082;28;20040;-77
2021/05/30 09:18:47;;;;;;;9.20;4.13;;;;;;;13.32;48.77;96253.16;5103249;28;20143;-77
2021/05/30 09:21:14;;;;;;;6.90;3.60;;;;;;;12.86;48.73;96263.81;5100015;28;20058;-77
2021/05/30 09:23:40;;;;;;;5.55;4.00;;;;;;;12.70;48.80;96256.94;5108351;28;20493;-78
2021/05/30 09:26:19;;;;;;;6.22;3.90;;;;;;;12.75;49.56;96260.38;5098631;28;20043;-78
2021/05/30 09:29:06;;;;;;;7.47;3.85;;;;;;;13.07;49.34;96255.84;5098836;28;20402;-78
2021/05/30 09:31:33;;;;;;;7.30;3.17;;;;;;;13.30;44.50;96257.94;5110378;28;20043;-77
2021/05/30 09:33:59;;;;;;;5.43;3.10;;;;;;;13.51;43.38;96249.97;5093336;28;20490;-77
2021/05/30 09:36:25;;;;;;;5.15;3.28;;;;;;;13.13;43.28;96254.78;5110782;28;20042;-77
2021/05/30 09:39:04;;;;;;;6.03;3.20;;;;;;;13.32;44.20;96245.25;5110653;28;20057;-75
2021/05/30 09:41:30;;;;;;;5.35;3.72;;;;;;;13.29;44.76;96248.44;5103732;28;20047;-78
2021/05/30 09:43:56;;;;;;;5.82;3.50;;;;;;;13.39;46.79;96241.53;5101864;28;20035;-78
2021/05/30 09:46:42;;;;;;;6.75;3.70;;;;;;;13.43;45.23;96253.16;5099605;28;20051;-79
2021/05/30 09:49:08;;;;;;;5.32;3.05;;;;;;;13.57;40.82;96243.59;5108597;28;20055;-77
2021/05/30 09:51:37;;;;;;;4.93;3.00;;;;;;;13.66;38.34;96242.00;5094866;28;20068;-77
2021/05/30 09:54:06;;;;;;;5.35;3.38;;;;;;;13.54;39.70;96249.44;5100500;28;20497;-77
2021/05/30 09:56:39;;;;;;;4.35;2.75;;;;;;;13.26;40.81;96238.41;5093029;28;20236;-77
2021/05/30 09:59:07;;;;;;;5.05;3.00;;;;;;;13.38;40.56;96250.56;5106289;28;20051;-78
2021/05/30 10:01:59;;;;;;;4.72;2.85;;;;;;;13.92;39.17;96246.38;5099967;28;20485;-78
2021/05/30 10:04:27;;;;;;;3.80;2.83;;;;;;;14.38;38.31;96246.91;5103248;28;20043;-77
2021/05/30 10:06:56;;;;;;;4.10;2.67;;;;;;;14.98;36.76;96243.28;5097751;28;20051;-78
2021/05/30 10:09:22;;;;;;;3.90;2.53;;;;;;;15.26;35.51;96238.25;5099014;28;20039;-78
2021/05/30 10:11:48;;;;;;;5.88;3.28;;;;;;;14.65;36.47;96235.09;5106659;28;20428;-78
2021/05/30 10:14:15;;;;;;;3.28;2.47;;;;;;;14.97;36.89;96231.13;5107263;28;20032;-79
2021/05/30 10:16:41;;;;;;;6.85;2.80;;;;;;;14.85;35.95;96233.34;5101652;28;20059;-79
2021/05/30 10:19:09;;;;;;;5.68;3.00;;;;;;;15.04;36.13;96236.06;5092616;28;20044;-79
2021/05/30 10:21:43;;;;;;;6.25;3.30;;;;;;;15.69;36.22;96230.34;5097205;28;20521;-79
2021/05/30 10:24:10;;;;;;;5.15;3.10;;;;;;;15.61;36.68;96228.31;5103416;28;20050;-79
2021/05/30 10:26:36;;;;;;;5.03;3.20;;;;;;;15.32;36.65;96226.50;5109288;28;20058;-79
2021/05/30 10:29:09;;;;;;;8.15;3.45;;;;;;;15.50;38.77;96226.84;5099255;28;20490;-79
2021/05/30 10:31:37;;;;;;;4.88;3.40;;;;;;;15.81;37.38;96226.53;5095076;28;20036;-78
2021/05/30 10:34:11;;;;;;;4.38;2.90;;;;;;;16.28;36.22;96230.91;5096363;28;20089;-78
2021/05/30 10:37:03;;;;;;;;;;;;;;;17.89;33.46;96231.59;5107212;28;20040;-78
2021/05/30 10:39:28;;;;;;;4.70;3.20;;;;;;;17.52;33.54;96228.84;5091283;28;19981;-79
2021/05/30 10:42:09;;;;;;;5.32;3.20;;;;;;;16.61;35.31;96224.84;5092503;28;20487;-79
2021/05/30 10:45:03;;;;;;;4.63;2.97;;;;;;;16.20;36.30;96233.44;5096878;28;20127;-77
2021/05/30 10:47:44;;;;;;;6.35;3.80;;;;;;;16.06;36.89;96228.84;5095704;28;20047;-77
2021/05/30 10:50:13;;;;;;;5.78;3.60;;;;;;;16.27;36.92;96234.63;5100309;28;20501;-79
2021/05/30 10:52:40;;;;;;;5.55;3.50;;;;;;;15.51;37.22;96233.75;5098485;28;20058;-77
2021/05/30 10:55:12;;;;;;;6.50;3.90;;;;;;;16.17;36.96;96234.00;5099077;28;20066;-78
2021/05/30 10:57:47;;;;;;;5.85;3.65;;;;;;;19.33;31.77;96233.59;5102900;28;20471;-77
2021/05/30 11:00:21;;;;;;;6.05;3.80;;;;;;;17.23;34.59;96231.81;5109062;28;20031;-77
2021/05/30 11:03:06;;;;;;;7.70;3.90;;;;;;;18.72;32.45;96231.38;5111145;28;20044;-77
2021/05/30 11:05:44;;;;;;;5.88;3.78;;;;;;;18.48;31.89;96221.78;5100662;28;20096;-77
2021/05/30 11:08:51;;;;;;;6.35;3.22;;;;;;;19.71;29.86;96233.09;5106085;28;20073;-76
2021/05/30 11:11:29;;;;;;;6.22;3.70;;;;;;;19.59;30.46;96230.25;5081175;28;20068;-77
2021/05/30 11:14:09;;;;;;;5.15;3.30;;;;;;;18.50;29.56;96224.94;5099390;28;20156;-76
2021/05/30 11:16:41;;;;;;;6.90;3.95;;;;;;;16.92;33.64;96232.34;5100876;28;20047;-78
2021/05/30 11:19:10;;;;;;;6.28;3.40;;;;;;;16.57;34.12;96231.81;5105644;28;20047;-73
2021/05/30 11:21:43;;;;;;;5.30;3.35;;;;;;;17.82;31.79;96224.78;5108969;28;20044;-74
2021/05/30 11:24:12;;;;;;;6.43;3.80;;;;;;;20.11;30.03;96235.69;5101655;28;20126;-77
2021/05/30 11:26:38;;;;;;;5.15;3.63;;;;;;;20.43;29.32;96225.69;5115200;27;20767;-77
2021/05/30 11:29:05;;;;;;;5.55;3.53;;;;;;;18.75;29.07;96225.44;5106395;28;20136;-75
2021/05/30 11:31:32;;;;;;;5.60;3.42;;;;;;;17.35;31.32;96229.44;5095713;28;20040;-76
2021/05/30 11:34:01;;;;;;;4.72;3.70;;;;;;;18.82;29.66;96217.78;5103995;28;20055;-76
2021/05/30 11:36:30;;;;;;;5.75;3.92;;;;;;;18.13;32.47;96221.53;5105515;28;20455;-75
2021/05/30 11:39:11;;;;;;;5.05;3.40;;;;;;;19.58;30.65;96217.97;5106128;28;20472;-76
2021/05/30 11:41:43;;;;;;;5.18;3.63;;;;;;;18.73;29.90;96211.59;5096362;28;20516;-74
2021/05/30 11:44:17;;;;;;;5.05;3.92;;;;;;;19.19;28.90;96223.81;5104252;28;20126;-76